createdAt,value
2023-01-01T00:00:12.267Z,63.05
2023-01-01T00:02:41.634Z,64.19
2023-01-01T00:05:10.405Z,62.29
2023-01-01T00:07:38.739Z,60.21
2023-01-01T00:10:28.337Z,58.13
2023-01-01T00:12:57.557Z,56.69
2023-01-01T00:15:26.769Z,59.13
2023-01-01T00:17:55.018Z,63.58
2023-01-01T00:20:23.352Z,65.05
2023-01-01T00:22:56.076Z,63.33
2023-01-01T00:25:25.367Z,61.58
2023-01-01T00:27:53.953Z,57.23
2023-01-01T00:30:24.143Z,57.18
2023-01-01T00:32:55.154Z,59.89
2023-01-01T00:35:25.769Z,60.30
2023-01-01T00:37:54.931Z,64.66
2023-01-01T00:40:23.163Z,65.83
2023-01-01T00:42:52.080Z,63.87
2023-01-01T00:45:22.626Z,60.28
2023-01-01T00:47:52.979Z,57.51
2023-01-01T00:50:22.279Z,58.08
2023-01-01T00:52:50.625Z,60.80
2023-01-01T00:55:18.944Z,64.58
2023-01-01T00:57:47.153Z,65.31
2023-01-01T01:00:17.201Z,63.38
2023-01-01T01:02:45.660Z,61.60
2023-01-01T01:05:13.954Z,61.04
2023-01-01T01:07:42.701Z,57.34
2023-01-01T01:10:11.638Z,56.42
2023-01-01T01:12:39.893Z,58.84
2023-01-01T01:15:09.630Z,62.78
2023-01-01T01:17:37.824Z,64.87
2023-01-01T01:20:08.011Z,62.71
2023-01-01T01:22:36.336Z,59.81
2023-01-01T01:25:05.915Z,57.19
2023-01-01T01:27:34.205Z,57.34
2023-01-01T01:30:02.731Z,59.75
2023-01-01T01:32:30.944Z,63.83
2023-01-01T01:34:59.138Z,65.77
2023-01-01T01:37:28.120Z,61.90
2023-01-01T01:39:56.476Z,60.72
2023-01-01T01:42:24.718Z,57.48
2023-01-01T01:44:56.704Z,56.98
2023-01-01T01:47:33.591Z,59.38
2023-01-01T01:50:08.735Z,63.55
2023-01-01T01:52:41.264Z,64.95
2023-01-01T01:55:10.422Z,61.65
2023-01-01T01:57:40.402Z,57.72
2023-01-01T02:00:12.021Z,57.32
2023-01-01T02:02:48.073Z,59.07
2023-01-01T02:05:18.314Z,63.63
2023-01-01T02:07:47.308Z,65.33
2023-01-01T02:10:15.501Z,62.22
2023-01-01T02:12:43.998Z,57.86
2023-01-01T02:15:12.395Z,56.34
2023-01-01T02:17:47.520Z,57.47
2023-01-01T02:20:33.562Z,58.79
2023-01-01T02:23:25.071Z,64.29
2023-01-01T02:26:10.762Z,65.72
2023-01-01T02:28:53.431Z,63.46
2023-01-01T02:31:27.580Z,59.45
2023-01-01T02:33:59.719Z,55.43
2023-01-01T02:36:32.757Z,55.61
2023-01-01T02:39:04.744Z,57.21
2023-01-01T02:41:38.327Z,60.31
2023-01-01T02:44:06.853Z,63.35
2023-01-01T02:46:35.960Z,65.40
2023-01-01T02:49:09.827Z,62.87
2023-01-01T02:51:57.148Z,60.58
2023-01-01T02:54:32.880Z,56.58
2023-01-01T02:57:08.896Z,57.07
2023-01-01T03:00:07.563Z,58.55
2023-01-01T03:02:51.105Z,64.02
2023-01-01T03:05:27.986Z,65.42
2023-01-01T03:08:06.739Z,63.32
2023-01-01T03:10:42.647Z,60.28
2023-01-01T03:13:19.963Z,56.24
2023-01-01T03:15:56.946Z,56.15
2023-01-01T03:18:28.117Z,57.43
2023-01-01T03:21:01.228Z,59.77
2023-01-01T03:23:35.324Z,64.76
2023-01-01T03:26:08.204Z,66.14
2023-01-01T03:28:43.332Z,63.86
2023-01-01T03:31:17.520Z,61.45
2023-01-01T03:33:49.263Z,57.92
2023-01-01T03:36:21.340Z,58.10
2023-01-01T03:38:54.360Z,61.16
2023-01-01T03:41:27.569Z,64.20
2023-01-01T03:44:03.827Z,64.03
2023-01-01T03:46:36.478Z,62.52
2023-01-01T03:49:07.638Z,60.34
2023-01-01T03:51:56.779Z,57.42
2023-01-01T03:54:38.309Z,57.70
2023-01-01T03:57:12.593Z,61.89
2023-01-01T03:59:47.803Z,64.77
2023-01-01T04:02:21.305Z,63.82
2023-01-01T04:04:50.159Z,60.81
2023-01-01T04:07:19.016Z,57.88
2023-01-01T04:09:51.211Z,57.99
2023-01-01T04:12:20.000Z,58.46
2023-01-01T04:14:48.470Z,59.61
2023-01-01T04:17:16.682Z,64.25
2023-01-01T04:19:47.485Z,65.62
2023-01-01T04:22:22.504Z,62.57
2023-01-01T04:24:50.674Z,58.45
2023-01-01T04:27:18.886Z,55.81
2023-01-01T04:29:47.090Z,56.92
2023-01-01T04:32:15.291Z,58.45
2023-01-01T04:34:43.560Z,60.18
2023-01-01T04:37:13.536Z,64.50
2023-01-01T04:39:42.256Z,66.05
2023-01-01T04:42:10.497Z,64.60
2023-01-01T04:44:38.677Z,61.81
2023-01-01T04:47:07.155Z,56.34
2023-01-01T04:49:35.595Z,54.83
2023-01-01T04:52:04.263Z,56.30
2023-01-01T04:54:32.713Z,58.27
2023-01-01T04:57:00.897Z,58.57
2023-01-01T04:59:30.286Z,59.58
2023-01-01T05:01:58.976Z,63.94
2023-01-01T05:04:27.295Z,66.11
2023-01-01T05:06:55.595Z,62.80
2023-01-01T05:09:23.835Z,58.94
2023-01-01T05:11:53.701Z,56.46
2023-01-01T05:14:25.314Z,57.61
2023-01-01T05:16:53.556Z,58.92
2023-01-01T05:19:21.843Z,61.63
2023-01-01T05:21:50.049Z,66.25
2023-01-01T05:24:18.423Z,65.33
2023-01-01T05:26:46.660Z,61.58
2023-01-01T05:29:17.083Z,57.00
2023-01-01T05:31:46.127Z,55.49
2023-01-01T05:34:14.396Z,56.85
2023-01-01T05:36:42.658Z,61.06
2023-01-01T05:39:12.349Z,62.91
2023-01-01T05:41:40.578Z,64.82
2023-01-01T05:44:09.764Z,62.18
2023-01-01T05:46:38.350Z,57.34
2023-01-01T05:49:06.800Z,56.57
2023-01-01T05:54:02.891Z,59.22
2023-01-01T05:56:31.202Z,60.58
2023-01-01T05:58:59.390Z,64.38
2023-01-01T06:01:29.590Z,62.54
2023-01-01T06:04:00.126Z,58.23
2023-01-01T06:06:30.556Z,55.50
2023-01-01T06:09:01.787Z,57.80
2023-01-01T06:11:30.808Z,59.20
2023-01-01T06:13:59.983Z,58.68
2023-01-01T06:16:31.724Z,61.43
2023-01-01T06:19:00.029Z,64.83
2023-01-01T06:21:29.240Z,61.97
2023-01-01T06:23:59.299Z,57.73
2023-01-01T06:26:29.594Z,55.27
2023-01-01T06:28:58.999Z,56.66
2023-01-01T06:31:28.668Z,58.36
2023-01-01T06:33:56.998Z,59.02
2023-01-01T06:36:26.232Z,60.46
2023-01-01T06:38:55.971Z,64.17
2023-01-01T06:41:25.772Z,62.43
2023-01-01T06:43:55.030Z,57.30
2023-01-01T06:46:25.314Z,55.99
2023-01-01T06:48:55.583Z,57.18
2023-01-01T06:51:25.235Z,60.62
2023-01-01T06:53:54.115Z,63.51
2023-01-01T06:56:22.331Z,62.84
2023-01-01T06:58:50.854Z,57.98
2023-01-01T07:01:21.002Z,54.60
2023-01-01T07:03:52.653Z,58.19
2023-01-01T07:06:20.325Z,58.79
2023-01-01T07:08:48.714Z,61.00
2023-01-01T07:11:17.081Z,64.32
2023-01-01T07:13:45.567Z,63.43
2023-01-01T07:16:14.720Z,58.91
2023-01-01T07:18:42.995Z,56.59
2023-01-01T07:21:29.454Z,55.82
2023-01-01T07:24:00.482Z,61.09
2023-01-01T07:26:30.294Z,62.85
2023-01-01T07:29:06.418Z,62.80
2023-01-01T07:31:36.971Z,58.73
2023-01-01T07:34:05.501Z,58.14
2023-01-01T07:36:33.943Z,58.73
2023-01-01T07:39:02.244Z,61.10
2023-01-01T07:41:30.435Z,63.84
2023-01-01T07:44:00.326Z,62.69
2023-01-01T07:46:28.785Z,61.13
2023-01-01T07:48:57.011Z,56.23
2023-01-01T07:51:25.265Z,56.35
2023-01-01T07:53:53.476Z,56.16
2023-01-01T07:56:21.769Z,57.37
2023-01-01T07:58:50.103Z,58.82
2023-01-01T08:01:18.744Z,59.58
2023-01-01T08:03:52.424Z,62.82
2023-01-01T08:06:21.549Z,64.96
2023-01-01T08:08:49.742Z,61.97
2023-01-01T08:11:18.092Z,55.92
2023-01-01T08:13:46.302Z,55.09
2023-01-01T08:16:14.490Z,56.12
2023-01-01T08:18:42.789Z,57.25
2023-01-01T08:21:10.973Z,59.72
2023-01-01T08:23:39.308Z,61.44
2023-01-01T08:26:07.546Z,64.89
2023-01-01T08:28:36.261Z,63.09
2023-01-01T08:31:04.931Z,58.99
2023-01-01T08:33:33.149Z,56.18
2023-01-01T08:36:01.472Z,57.08
2023-01-01T08:38:29.651Z,57.95
2023-01-01T08:40:57.802Z,58.99
2023-01-01T08:43:25.999Z,59.91
2023-01-01T08:45:54.167Z,63.06
2023-01-01T08:48:30.345Z,65.07
2023-01-01T08:51:00.722Z,62.13
2023-01-01T08:53:29.617Z,58.06
2023-01-01T08:55:58.871Z,56.18
2023-01-01T08:58:27.536Z,58.38
2023-01-01T09:00:55.941Z,59.68
2023-01-01T09:03:24.197Z,59.30
2023-01-01T09:05:52.539Z,61.43
2023-01-01T09:08:21.383Z,64.54
2023-01-01T09:10:50.092Z,65.27
2023-01-01T09:13:20.171Z,60.73
2023-01-01T09:15:50.187Z,56.81
2023-01-01T09:18:18.645Z,55.38
2023-01-01T09:20:47.072Z,56.46
2023-01-01T09:23:15.618Z,59.00
2023-01-01T09:25:43.849Z,60.10
2023-01-01T09:28:13.471Z,60.25
2023-01-01T09:30:41.922Z,61.14
2023-01-01T09:33:10.191Z,64.31
2023-01-01T09:35:38.488Z,63.75
2023-01-01T09:38:06.800Z,60.36
2023-01-01T09:40:50.923Z,55.80
2023-01-01T09:43:31.081Z,55.57
2023-01-01T09:46:02.676Z,56.89
2023-01-01T09:48:32.207Z,58.35
2023-01-01T09:51:04.245Z,58.29
2023-01-01T09:53:40.856Z,58.89
2023-01-01T09:56:17.166Z,61.14
2023-01-01T09:58:45.659Z,61.61
2023-01-01T10:01:24.993Z,65.43
2023-01-01T10:04:00.531Z,61.09
2023-01-01T10:06:31.941Z,55.32
2023-01-01T10:09:09.229Z,54.21
2023-01-01T10:11:45.837Z,57.60
2023-01-01T10:14:21.727Z,57.41
2023-01-01T10:16:54.620Z,58.33
2023-01-01T10:19:30.776Z,59.19
2023-01-01T10:22:03.083Z,61.26
2023-01-01T10:24:42.846Z,59.57
2023-01-01T10:27:23.144Z,60.71
2023-01-01T10:29:55.601Z,60.23
2023-01-01T10:32:31.667Z,61.75
2023-01-01T10:35:02.064Z,63.25
2023-01-01T10:37:36.291Z,59.06
2023-01-01T10:40:15.130Z,55.97
2023-01-01T10:42:47.078Z,55.82
2023-01-01T10:45:16.609Z,57.77
2023-01-01T10:48:12.249Z,58.45
2023-01-01T10:50:47.736Z,57.98
2023-01-01T10:53:29.276Z,58.40
2023-01-01T10:56:04.297Z,58.21
2023-01-01T10:58:36.528Z,59.99
2023-01-01T11:01:06.852Z,60.27
2023-01-01T11:03:35.456Z,58.80
2023-01-01T11:06:09.941Z,60.63
2023-01-01T11:08:41.223Z,60.14
2023-01-01T11:11:21.448Z,61.33
2023-01-01T11:13:55.992Z,60.33
2023-01-01T11:16:25.162Z,60.19
2023-01-01T11:19:02.221Z,60.17
2023-01-01T11:21:30.684Z,60.33
2023-01-01T11:24:18.702Z,59.58
2023-01-01T11:26:54.023Z,59.04
2023-01-01T11:29:28.864Z,60.47
2023-01-01T11:31:58.062Z,59.35
2023-01-01T11:34:34.060Z,59.94
2023-01-01T11:37:23.281Z,60.27
2023-01-01T11:39:53.625Z,60.25
2023-01-01T11:42:24.717Z,59.98
2023-01-01T11:44:55.760Z,60.02
2023-01-01T11:47:28.634Z,59.85
2023-01-01T11:50:02.541Z,59.96
2023-01-01T11:52:38.322Z,59.93
2023-01-01T11:55:17.905Z,59.99
2023-01-01T11:57:56.726Z,59.49
2023-01-01T12:00:25.011Z,59.89
2023-01-01T12:02:59.512Z,60.47
2023-01-01T12:05:41.078Z,59.11
2023-01-01T12:08:12.664Z,58.86
2023-01-01T12:10:47.687Z,59.70
2023-01-01T12:13:20.526Z,58.81
2023-01-01T12:15:56.719Z,58.48
2023-01-01T12:18:30.900Z,58.94
2023-01-01T12:21:03.161Z,58.95
2023-01-01T12:23:32.577Z,58.80
2023-01-01T12:26:15.300Z,58.32
2023-01-01T12:29:01.513Z,58.78
2023-01-01T12:31:40.714Z,59.35
2023-01-01T12:34:17.105Z,58.61
2023-01-01T12:36:53.146Z,59.07
2023-01-01T12:39:59.699Z,58.33
2023-01-01T12:42:41.544Z,59.00
2023-01-01T12:45:30.918Z,58.36
2023-01-01T12:48:12.932Z,58.73
2023-01-01T12:50:55.062Z,59.52
2023-01-01T12:53:34.338Z,59.04
2023-01-01T12:56:23.468Z,59.11
2023-01-01T12:58:57.325Z,59.03
2023-01-01T13:01:32.870Z,58.78
2023-01-01T13:04:05.205Z,59.83
2023-01-01T13:06:40.194Z,59.87
2023-01-01T13:09:14.034Z,60.06
2023-01-01T13:11:45.532Z,60.10
2023-01-01T13:14:14.022Z,60.07
2023-01-01T13:16:45.485Z,60.08
2023-01-01T13:19:29.898Z,59.48
2023-01-01T13:21:58.591Z,59.77
2023-01-01T13:24:27.565Z,60.15
2023-01-01T13:26:55.791Z,59.83
2023-01-01T13:29:33.100Z,59.61
2023-01-01T13:32:08.905Z,60.70
2023-01-01T13:34:42.227Z,60.51
2023-01-01T13:37:45.948Z,60.35
2023-01-01T13:40:49.578Z,60.49
2023-01-01T13:43:27.671Z,60.90
2023-01-01T13:46:14.218Z,61.02
2023-01-01T13:49:15.414Z,61.27
2023-01-01T13:52:07.114Z,61.52
2023-01-01T13:55:11.172Z,61.46
2023-01-01T13:58:16.692Z,61.62
2023-01-01T14:01:03.449Z,61.96
2023-01-01T14:03:40.108Z,61.98
2023-01-01T14:06:14.229Z,62.37
2023-01-01T14:08:42.678Z,65.78
2023-01-01T14:11:21.207Z,63.57
2023-01-01T14:13:49.777Z,57.08
2023-01-01T14:16:18.419Z,54.72
2023-01-01T14:18:49.134Z,55.22
2023-01-01T14:21:20.097Z,56.87
2023-01-01T14:23:50.934Z,57.10
2023-01-01T14:26:22.508Z,58.96
2023-01-01T14:28:54.711Z,58.97
2023-01-01T14:31:27.704Z,59.52
2023-01-01T14:33:56.087Z,60.47
2023-01-01T14:36:26.179Z,61.12
2023-01-01T14:38:56.464Z,61.64
2023-01-01T14:41:29.117Z,62.15
2023-01-01T14:44:02.380Z,64.11
2023-01-01T14:46:31.253Z,64.63
2023-01-01T14:49:03.505Z,59.07
2023-01-01T14:51:32.460Z,56.22
2023-01-01T14:54:04.301Z,56.51
2023-01-01T14:56:35.477Z,57.79
2023-01-01T14:59:06.861Z,58.19
2023-01-01T15:01:34.556Z,59.59
2023-01-01T15:04:04.675Z,60.37
2023-01-01T15:06:33.105Z,60.89
2023-01-01T15:09:01.477Z,61.36
2023-01-01T15:11:29.774Z,64.57
2023-01-01T15:14:00.405Z,66.49
2023-01-01T15:16:33.232Z,61.39
2023-01-01T15:19:17.919Z,57.19
2023-01-01T15:21:47.454Z,54.53
2023-01-01T15:24:19.633Z,55.34
2023-01-01T15:26:52.054Z,57.47
2023-01-01T15:29:28.629Z,58.88
2023-01-01T15:32:01.305Z,59.09
2023-01-01T15:34:32.085Z,60.34
2023-01-01T15:37:14.439Z,61.00
2023-01-01T15:39:46.952Z,64.22
2023-01-01T15:42:33.252Z,64.99
2023-01-01T15:45:21.944Z,58.93
2023-01-01T15:47:51.460Z,56.22
2023-01-01T15:50:25.998Z,58.06
2023-01-01T15:52:57.828Z,58.64
2023-01-01T15:55:29.321Z,59.37
2023-01-01T15:57:57.553Z,59.91
2023-01-01T16:00:28.923Z,59.81
2023-01-01T16:03:00.395Z,65.19
2023-01-01T16:05:28.736Z,66.25
2023-01-01T16:08:02.505Z,63.04
2023-01-01T16:10:31.698Z,58.46
2023-01-01T16:13:00.046Z,56.21
2023-01-01T16:15:28.512Z,56.77
2023-01-01T16:17:57.241Z,58.64
2023-01-01T16:20:26.090Z,60.60
2023-01-01T16:22:54.543Z,61.64
2023-01-01T16:25:23.210Z,63.91
2023-01-01T16:27:51.462Z,64.48
2023-01-01T16:30:24.550Z,61.35
2023-01-01T16:32:52.988Z,57.17
2023-01-01T16:35:21.561Z,55.51
2023-01-01T16:37:50.090Z,56.53
2023-01-01T16:40:18.361Z,58.65
2023-01-01T16:42:46.691Z,60.09
2023-01-01T16:45:18.514Z,60.18
2023-01-01T16:47:47.088Z,63.18
2023-01-01T16:50:15.550Z,63.10
2023-01-01T16:52:45.138Z,61.48
2023-01-01T16:55:13.935Z,56.89
2023-01-01T16:57:43.840Z,55.90
2023-01-01T17:00:13.891Z,58.08
2023-01-01T17:02:42.429Z,58.21
2023-01-01T17:05:11.451Z,59.66
2023-01-01T17:07:39.851Z,60.95
2023-01-01T17:10:09.100Z,63.68
2023-01-01T17:12:38.014Z,65.80
2023-01-01T17:15:08.438Z,62.16
2023-01-01T17:17:37.241Z,57.59
2023-01-01T17:20:08.119Z,57.03
2023-01-01T17:22:37.884Z,57.65
2023-01-01T17:25:08.302Z,58.91
2023-01-01T17:27:36.793Z,59.35
2023-01-01T17:30:06.992Z,59.91
2023-01-01T17:32:35.302Z,64.08
2023-01-01T17:35:04.462Z,66.00
2023-01-01T17:37:33.242Z,61.77
2023-01-01T17:40:01.910Z,55.95
2023-01-01T17:42:30.938Z,54.43
2023-01-01T17:44:59.700Z,55.41
2023-01-01T17:47:32.745Z,56.86
2023-01-01T17:50:01.679Z,57.59
2023-01-01T17:52:30.555Z,58.88
2023-01-01T17:54:59.281Z,59.83
2023-01-01T17:57:28.206Z,63.68
2023-01-01T17:59:58.910Z,66.15
2023-01-01T18:02:27.828Z,62.74
2023-01-01T18:04:56.217Z,58.17
2023-01-01T18:07:24.463Z,56.15
2023-01-01T18:09:52.917Z,56.49
2023-01-01T18:12:21.464Z,58.59
2023-01-01T18:14:49.777Z,58.98
2023-01-01T18:17:19.688Z,60.04
2023-01-01T18:19:48.114Z,64.00
2023-01-01T18:22:17.027Z,65.50
2023-01-01T18:24:45.915Z,62.44
2023-01-01T18:27:14.612Z,60.92
2023-01-01T18:29:43.194Z,58.83
2023-01-01T18:32:11.502Z,56.81
2023-01-01T18:34:39.795Z,57.65
2023-01-01T18:37:08.404Z,58.87
2023-01-01T18:39:41.221Z,60.79
2023-01-01T18:42:22.816Z,64.36
2023-01-01T18:44:51.748Z,65.70
2023-01-01T18:47:20.330Z,65.56
2023-01-01T18:49:51.777Z,61.14
2023-01-01T18:52:25.391Z,57.17
2023-01-01T18:55:01.975Z,56.16
2023-01-01T18:57:31.118Z,57.44
2023-01-01T19:00:06.298Z,60.27
2023-01-01T19:02:38.548Z,63.59
2023-01-01T19:05:18.092Z,65.06
2023-01-01T19:07:51.429Z,62.71
2023-01-01T19:10:21.319Z,60.07
2023-01-01T19:12:54.136Z,59.05
2023-01-01T19:15:23.565Z,58.08
2023-01-01T19:17:53.218Z,60.02
2023-01-01T19:20:23.503Z,63.15
2023-01-01T19:22:52.044Z,64.91
2023-01-01T19:25:36.340Z,64.51
2023-01-01T19:28:32.854Z,62.19
2023-01-01T19:31:01.804Z,57.04
2023-01-01T19:33:32.110Z,56.62
2023-01-01T19:36:00.766Z,58.22
2023-01-01T19:38:29.199Z,60.00
2023-01-01T19:40:57.471Z,63.36
2023-01-01T19:43:26.272Z,65.85
2023-01-01T19:45:54.525Z,63.13
2023-01-01T19:48:22.909Z,62.00
2023-01-01T19:50:51.551Z,60.25
2023-01-01T19:53:20.246Z,57.86
2023-01-01T19:55:48.599Z,58.96
2023-01-01T19:58:19.310Z,59.68
2023-01-01T20:00:47.769Z,64.26
2023-01-01T20:06:07.671Z,63.53
2023-01-01T20:08:37.752Z,61.29
2023-01-01T20:11:07.025Z,58.26
2023-01-01T20:13:35.306Z,58.12
2023-01-01T20:16:04.724Z,60.18
2023-01-01T20:18:33.416Z,63.33
2023-01-01T20:21:25.643Z,64.85
2023-01-01T20:23:55.241Z,63.62
2023-01-01T20:26:25.227Z,61.26
2023-01-01T20:29:11.724Z,58.10
2023-01-01T20:31:41.122Z,56.84
2023-01-01T20:34:09.512Z,59.04
2023-01-01T20:36:56.625Z,63.74
2023-01-01T20:39:26.201Z,64.87
2023-01-01T20:41:55.755Z,63.14
2023-01-01T20:44:24.519Z,62.84
2023-01-01T20:46:52.867Z,60.85
2023-01-01T20:49:21.954Z,60.76
2023-01-01T20:51:52.079Z,57.40
2023-01-01T20:54:21.382Z,57.17
2023-01-01T20:56:49.761Z,58.75
2023-01-01T20:59:34.888Z,63.41
2023-01-01T21:02:04.742Z,64.33
2023-01-01T21:04:37.406Z,62.42
2023-01-01T21:07:05.690Z,63.23
2023-01-01T21:09:33.969Z,60.41
2023-01-01T21:12:02.207Z,58.12
2023-01-01T21:14:30.430Z,58.48
2023-01-01T21:16:58.737Z,60.21
2023-01-01T21:19:28.240Z,64.02
2023-01-01T21:21:57.754Z,66.34
2023-01-01T21:24:28.238Z,64.79
2023-01-01T21:27:04.988Z,62.19
2023-01-01T21:29:34.490Z,59.14
2023-01-01T21:32:17.619Z,58.21
2023-01-01T21:34:48.240Z,60.74
2023-01-01T21:37:36.778Z,63.94
2023-01-01T21:40:34.493Z,66.59
2023-01-01T21:43:26.452Z,63.81
2023-01-01T21:45:56.855Z,59.80
2023-01-01T21:48:30.823Z,58.00
2023-01-01T21:51:00.521Z,58.83
2023-01-01T21:53:32.441Z,63.92
2023-01-01T21:56:22.147Z,63.26
2023-01-01T21:59:09.922Z,60.29
2023-01-01T22:01:40.702Z,59.46
2023-01-01T22:04:19.757Z,62.44
2023-01-01T22:06:51.070Z,64.73
2023-01-01T22:09:22.764Z,62.29
2023-01-01T22:11:56.042Z,61.24
2023-01-01T22:14:32.650Z,60.97
2023-01-01T22:17:06.001Z,58.35
2023-01-01T22:19:37.663Z,57.41
2023-01-01T22:22:11.575Z,58.92
2023-01-01T22:24:40.324Z,64.54
2023-01-01T22:27:25.378Z,64.26
2023-01-01T22:29:54.479Z,61.53
2023-01-01T22:32:25.262Z,61.39
2023-01-01T22:35:04.414Z,59.08
2023-01-01T22:37:37.200Z,58.67
2023-01-01T22:40:16.612Z,60.13
2023-01-01T22:42:44.954Z,64.57
2023-01-01T22:45:16.452Z,64.55
2023-01-01T22:47:45.117Z,62.63
2023-01-01T22:50:21.959Z,62.99
2023-01-01T22:52:50.496Z,62.78
2023-01-01T22:55:18.827Z,61.29
2023-01-01T22:57:47.429Z,61.11
2023-01-01T23:00:18.315Z,60.69
2023-01-01T23:02:46.571Z,59.33
2023-01-01T23:05:14.882Z,59.48
2023-01-01T23:07:43.265Z,61.67
2023-01-01T23:10:13.308Z,61.91
2023-01-01T23:12:41.519Z,60.94
2023-01-01T23:15:29.266Z,62.25
2023-01-01T23:17:57.483Z,60.71
2023-01-01T23:20:25.941Z,60.98
2023-01-01T23:22:55.586Z,60.61
2023-01-01T23:25:24.203Z,59.67
2023-01-01T23:27:53.012Z,57.13
2023-01-01T23:30:21.394Z,57.23
2023-01-01T23:32:49.924Z,59.08
2023-01-01T23:35:18.545Z,63.20
2023-01-01T23:37:46.809Z,65.63
2023-01-01T23:40:15.053Z,63.26
2023-01-01T23:42:43.285Z,59.80
2023-01-01T23:45:11.741Z,55.94
2023-01-01T23:47:40.317Z,55.60
2023-01-01T23:50:09.560Z,58.03
2023-01-01T23:52:38.532Z,59.99
2023-01-01T23:55:08.720Z,66.09
2023-01-01T23:57:36.908Z,65.67
